Observation data for Pampa on 05/26/2019      Previous  Date  Next       Current Mesonet Observations  Soil Data  Daily Summary Page  Observations in Plain Language
KPMS 260500Z 14010KT 16/15 A2997 RMK A01 T01640151  RH  097%=      5-min Rain = 0
KPMS 260505Z 13011KT 17/15 A2997 RMK A01 T01650152  RH  096%=      5-min Rain = 0
KPMS 260510Z 13012KT 17/15 A2996 RMK A01 T01660152  RH  096%=      5-min Rain = 0
KPMS 260515Z 14012KT 17/15 A2996 RMK A01 T01660152  RH  096%=      5-min Rain = 0
KPMS 260520Z 14012KT 17/15 A2996 RMK A01 T01670153  RH  096%=      5-min Rain = 0
KPMS 260525Z 13012KT 17/15 A2996 RMK A01 T01670153  RH  096%=      5-min Rain = 0
KPMS 260530Z 14012KT 17/15 A2996 RMK A01 T01670154  RH  096%=      5-min Rain = 0
KPMS 260535Z 14013KT 17/16 A2996 RMK A01 T01690156  RH  096%=      5-min Rain = 0
KPMS 260540Z 13012KT 17/16 A2996 RMK A01 T01700157  RH  096%=      5-min Rain = 0
KPMS 260545Z 13011KT 17/16 A2996 RMK A01 T01700157  RH  096%=      5-min Rain = 0
KPMS 260550Z 12012KT 17/16 A2997 RMK A01 T01680156  RH  097%=      5-min Rain = 0
KPMS 260555Z 12011KT 17/16 A2997 RMK A01 T01670156  RH  098%=      5-min Rain = 0
KPMS 260600Z 12011KT 17/16 A2997 RMK A01 T01650155  RH  098%=      5-min Rain = 0
KPMS 260605Z 11010KT 16/15 A2998 RMK A01 T01640154  RH  098%=      5-min Rain = 0
KPMS 260610Z 11009KT 16/15 A2998 RMK A01 T01640153  RH  098%=      5-min Rain = 0
KPMS 260615Z 11008KT 17/15 A2998 RMK A01 T01650153  RH  097%=      5-min Rain = 0
KPMS 260620Z 12008KT 17/15 A2998 RMK A01 T01650153  RH  097%=      5-min Rain = 0
KPMS 260625Z 12008KT 17/15 A2998 RMK A01 T01650153  RH  097%=      5-min Rain = 0
KPMS 260630Z 13007KT 17/15 A2998 RMK A01 T01650153  RH  097%=      5-min Rain = 0
KPMS 260635Z 14008KT 17/15 A2998 RMK A01 T01650153  RH  097%=      5-min Rain = 0
KPMS 260640Z 14010KT 17/15 A2998 RMK A01 T01660153  RH  097%=      5-min Rain = 0
KPMS 260645Z 15009KT 17/15 A2998 RMK A01 T01660154  RH  097%=      5-min Rain = 0
KPMS 260650Z 14011KT 17/15 A2998 RMK A01 T01660153  RH  096%=      5-min Rain = 0
KPMS 260655Z 14010KT 17/15 A2998 RMK A01 T01670154  RH  096%=      5-min Rain = 0
KPMS 260700Z 15008KT 17/15 A2998 RMK A01 T01670154  RH  097%=      5-min Rain = 0
KPMS 260705Z 15008KT 17/16 A2999 RMK A01 T01670155  RH  097%=      5-min Rain = 0
KPMS 260710Z 15008KT 17/16 A2999 RMK A01 T01670156  RH  097%=      5-min Rain = 0
KPMS 260715Z 15009KT 17/16 A2998 RMK A01 T01680157  RH  098%=      5-min Rain = 0
KPMS 260720Z 16010KT 17/16 A2998 RMK A01 T01680157  RH  098%=      5-min Rain = 0
KPMS 260725Z 16012KT 17/16 A2998 RMK A01 T01690158  RH  098%=      5-min Rain = 0
KPMS 260730Z 16013KT 17/16 A2998 RMK A01 T01690159  RH  098%=      5-min Rain = 0
KPMS 260735Z 16014KT 17/16 A2997 RMK A01 T01700160  RH  098%=      5-min Rain = 0
KPMS 260740Z 16013KT 17/16 A2998 RMK A01 T01720162  RH  099%=      5-min Rain = 0
KPMS 260745Z 16014KT 17/16 A2998 RMK A01 T01730163  RH  099%=      5-min Rain = 0
KPMS 260750Z 15015KT 17/17 A2998 RMK A01 T01740165  RH  099%=      5-min Rain = 0
KPMS 260755Z 16014KT 18/17 A2998 RMK A01 T01750166  RH  099%=      5-min Rain = 0
KPMS 260800Z 15014KT 18/17 A2998 RMK A01 T01760167  RH  099%=      5-min Rain = 0
KPMS 260805Z 16014KT 18/17 A2998 RMK A01 T01780169  RH  100%=      5-min Rain = 0
KPMS 260810Z 16015KT 18/17 A2998 RMK A01 T01800171  RH  100%=      5-min Rain = 0
KPMS 260815Z 16017G22KT 18/18 A2998 RMK A01 T01840175  RH  100%=      5-min Rain = 0
KPMS 260820Z 16016G21KT 19/18 A2998 RMK A01 T01850177  RH  100%=      5-min Rain = 0
KPMS 260825Z 16018KT 19/18 A2998 RMK A01 T01860178  RH  100%=      5-min Rain = 0
KPMS 260830Z 16017G22KT 19/18 A2998 RMK A01 T01870179  RH  100%=      5-min Rain = 0
KPMS 260835Z 16017KT 19/18 A2998 RMK A01 T01870179  RH  100%=      5-min Rain = 0
KPMS 260840Z 16016KT 19/18 A2998 RMK A01 T01870179  RH  100%=      5-min Rain = 0
KPMS 260845Z 16015KT 19/18 A2997 RMK A01 T01870179  RH  100%=      5-min Rain = 0
KPMS 260850Z 16016G21KT 19/18 A2997 RMK A01 T01880180  RH  100%=      5-min Rain = 0
KPMS 260855Z 16017G23KT 19/18 A2997 RMK A01 T01880180  RH  100%=      5-min Rain = 0
KPMS 260900Z 16017KT 19/18 A2997 RMK A01 T01880180  RH  100%=      5-min Rain = 0
KPMS 260905Z 16016G22KT 19/18 A2997 RMK A01 T01880180  RH  100%=      5-min Rain = 0
KPMS 260910Z 16018G23KT 19/18 A2997 RMK A01 T01880180  RH  100%=      5-min Rain = 0
KPMS 260915Z 16017KT 19/18 A2998 RMK A01 T01880180  RH  100%=      5-min Rain = 0
KPMS 260920Z 16019G24KT 19/18 A2998 RMK A01 T01880180  RH  100%=      5-min Rain = 0
KPMS 260925Z 16018G24KT 19/18 A2998 RMK A01 T01880180  RH  100%=      5-min Rain = 0
KPMS 260930Z 16018G24KT 19/18 A2998 RMK A01 T01880180  RH  100%=      5-min Rain = 0
KPMS 260935Z 16016G21KT 19/18 A2997 RMK A01 T01880180  RH  100%=      5-min Rain = 0
KPMS 260940Z 16018G23KT 19/18 A2997 RMK A01 T01880180  RH  100%=      5-min Rain = 0
KPMS 260945Z 16017G23KT 19/18 A2997 RMK A01 T01880180  RH  100%=      5-min Rain = 0
KPMS 260950Z 16017G22KT 19/18 A2997 RMK A01 T01880180  RH  100%=      5-min Rain = 0
KPMS 260955Z 16016G21KT 19/18 A2997 RMK A01 T01880180  RH  100%=      5-min Rain = 0
KPMS 261000Z 16016G21KT 19/18 A2997 RMK A01 T01880180  RH  100%=      5-min Rain = 0
KPMS 261005Z 16017G22KT 19/18 A2997 RMK A01 T01880180  RH  100%=      5-min Rain = 0
KPMS 261010Z 16016KT 19/18 A2998 RMK A01 T01880180  RH  100%=      5-min Rain = 0
KPMS 261015Z 16016KT 19/18 A2998 RMK A01 T01880180  RH  100%=      5-min Rain = 0
KPMS 261020Z 16016G21KT 19/18 A2998 RMK A01 T01880180  RH  100%=      5-min Rain = 0
KPMS 261025Z 16017G23KT 19/18 A2998 RMK A01 T01890181  RH  100%=      5-min Rain = 0
KPMS 261030Z 16016G21KT 19/18 A2998 RMK A01 T01890181  RH  100%=      5-min Rain = 0
KPMS 261035Z 16015G21KT 19/18 A2998 RMK A01 T01890181  RH  100%=      5-min Rain = 0
KPMS 261040Z 16016KT 19/18 A2998 RMK A01 T01900181  RH  100%=      5-min Rain = 0
KPMS 261045Z 16016KT 19/18 A2998 RMK A01 T01900181  RH  100%=      5-min Rain = 0
KPMS 261050Z 16017KT 19/18 A2998 RMK A01 T01900181  RH  100%=      5-min Rain = 0
KPMS 261055Z 16017G23KT 19/18 A2998 RMK A01 T01900182  RH  100%=      5-min Rain = 0
KPMS 261100Z 16017KT 19/18 A2997 RMK A01 T01900181  RH  100%=      5-min Rain = 0
KPMS 261105Z 16017G22KT 19/18 A2998 RMK A01 T01900181  RH  099%=      5-min Rain = 0
KPMS 261110Z 17016G21KT 19/18 A2998 RMK A01 T01910181  RH  099%=      5-min Rain = 0
KPMS 261115Z 16016G21KT 19/18 A2998 RMK A01 T01910181  RH  099%=      5-min Rain = 0
KPMS 261120Z 17018KT 19/18 A2998 RMK A01 T01910180  RH  099%=      5-min Rain = 0
KPMS 261125Z 17017KT 19/18 A2998 RMK A01 T01920180  RH  098%=      5-min Rain = 0
KPMS 261130Z 17016KT 19/18 A2998 RMK A01 T01910180  RH  098%=      5-min Rain = 0
KPMS 261135Z 17017G22KT 19/18 A2998 RMK A01 T01910180  RH  098%=      5-min Rain = 0
KPMS 261140Z 17017KT 19/18 A2998 RMK A01 T01920180  RH  098%=      5-min Rain = 0
KPMS 261145Z 17017G22KT 19/18 A2999 RMK A01 T01910179  RH  098%=      5-min Rain = 0
KPMS 261150Z 17017G23KT 19/18 A2999 RMK A01 T01920179  RH  097%=      5-min Rain = 0
KPMS 261155Z 17016KT 19/18 A2999 RMK A01 T01920179  RH  097%=      5-min Rain = 0
KPMS 261200Z 17017G22KT 19/18 A2999 RMK A01 T01920179  RH  097%=      5-min Rain = 0
KPMS 261205Z 17016G22KT 19/18 A2999 RMK A01 T01920179  RH  097%=      5-min Rain = 0
KPMS 261210Z 17015G22KT 19/18 A2999 RMK A01 T01920179  RH  097%=      5-min Rain = 0
KPMS 261215Z 17016KT 19/18 A30 RMK A01 T01920179  RH  097%=      5-min Rain = 0
KPMS 261220Z 17015G21KT 19/18 A30 RMK A01 T01930179  RH  097%=      5-min Rain = 0
KPMS 261225Z 17013G18KT 19/18 A3001 RMK A01 T01930179  RH  097%=      5-min Rain = 0
KPMS 261230Z 17013G18KT 19/18 A3001 RMK A01 T01930179  RH  097%=      5-min Rain = 0
KPMS 261235Z 17012KT 19/18 A3001 RMK A01 T01930180  RH  097%=      5-min Rain = 0
KPMS 261240Z 17011KT 19/18 A3002 RMK A01 T01940180  RH  097%=      5-min Rain = 0
KPMS 261245Z 17012KT 19/18 A3002 RMK A01 T01940180  RH  097%=      5-min Rain = 0
KPMS 261250Z 17012G17KT 19/18 A3001 RMK A01 T01940181  RH  097%=      5-min Rain = 0
KPMS 261255Z 17011KT 20/18 A3002 RMK A01 T01950181  RH  097%=      5-min Rain = 0
KPMS 261300Z 17011G16KT 19/18 A3002 RMK A01 T01940181  RH  097%=      5-min Rain = 0
KPMS 261305Z 16012G17KT 19/18 A3002 RMK A01 T01940181  RH  097%=      5-min Rain = 0
KPMS 261310Z 16012G17KT 19/18 A3002 RMK A01 T01940181  RH  097%=      5-min Rain = 0
KPMS 261315Z 16012KT 19/18 A3002 RMK A01 T01940182  RH  097%=      5-min Rain = 0
KPMS 261320Z 16012KT 20/18 A3002 RMK A01 T01950182  RH  097%=      5-min Rain = 0
KPMS 261325Z 16011KT 20/18 A3002 RMK A01 T01950182  RH  097%=      5-min Rain = 0
KPMS 261330Z 16011G16KT 20/18 A3002 RMK A01 T01950183  RH  098%=      5-min Rain = 0
KPMS 261335Z 15013KT 20/18 A3002 RMK A01 T01950183  RH  098%=      5-min Rain = 0
KPMS 261340Z 16015KT 20/18 A3002 RMK A01 T01950182  RH  097%=      5-min Rain = 0
KPMS 261345Z 16015G21KT 19/18 A3002 RMK A01 T01940182  RH  097%=      5-min Rain = 0
KPMS 261350Z 16015KT 19/18 A3002 RMK A01 T01940182  RH  097%=      5-min Rain = 0
KPMS 261355Z 16015KT 19/18 A3002 RMK A01 T01940182  RH  097%=      5-min Rain = 0
KPMS 261400Z 16014KT 19/18 A3002 RMK A01 T01940182  RH  097%=      5-min Rain = 0
KPMS 261405Z 16014KT 19/18 A3002 RMK A01 T01940182  RH  098%=      5-min Rain = 0
KPMS 261410Z 15013KT 20/18 A3002 RMK A01 T01950182  RH  098%=      5-min Rain = 0
KPMS 261415Z 16013G19KT 20/18 A3003 RMK A01 T01950182  RH  097%=      5-min Rain = 0
KPMS 261420Z 16013KT 20/18 A3003 RMK A01 T01960182  RH  097%=      5-min Rain = 0
KPMS 261425Z 16014G19KT 20/18 A3003 RMK A01 T01960182  RH  097%=      5-min Rain = 0
KPMS 261430Z 16014KT 20/18 A3003 RMK A01 T01960182  RH  097%=      5-min Rain = 0
KPMS 261435Z 16013G19KT 20/18 A3003 RMK A01 T01970183  RH  097%=      5-min Rain = 0
KPMS 261440Z 16014G19KT 20/18 A3004 RMK A01 T01960182  RH  097%=      5-min Rain = 0
KPMS 261445Z 16013KT 20/18 A3004 RMK A01 T01970183  RH  097%=      5-min Rain = 0
KPMS 261450Z 16012KT 20/18 A3004 RMK A01 T01970183  RH  096%=      5-min Rain = 0
KPMS 261455Z 16012KT 20/18 A3004 RMK A01 T01970183  RH  097%=      5-min Rain = 0
KPMS 261500Z 16014KT 20/18 A3004 RMK A01 T01980183  RH  096%=      5-min Rain = 0
KPMS 261505Z 16013KT 20/18 A3004 RMK A01 T01990183  RH  096%=      5-min Rain = 0
KPMS 261510Z 16013G18KT 20/18 A3004 RMK A01 T01980183  RH  096%=      5-min Rain = 0
KPMS 261515Z 16012KT 20/18 A3004 RMK A01 T01970183  RH  097%=      5-min Rain = 0
KPMS 261520Z 16012G17KT 20/18 A3004 RMK A01 T01970183  RH  097%=      5-min Rain = 0
KPMS 261525Z 16013KT 20/18 A3003 RMK A01 T01960182  RH  097%=      5-min Rain = 0
KPMS 261530Z 16013KT 20/18 A3004 RMK A01 T01960183  RH  097%=      5-min Rain = 0
KPMS 261535Z 16014G19KT 20/18 A3004 RMK A01 T01960182  RH  097%=      5-min Rain = 0
KPMS 261540Z 17011G16KT 20/18 A3004 RMK A01 T01960183  RH  097%=      5-min Rain = 0
KPMS 261545Z 17013KT 20/18 A3004 RMK A01 T01980183  RH  096%=      5-min Rain = 0
KPMS 261550Z 17015KT 20/18 A3004 RMK A01 T01980182  RH  096%=      5-min Rain = 0
KPMS 261555Z 17013KT 20/18 A3004 RMK A01 T01990183  RH  096%=      5-min Rain = 0
KPMS 261600Z 16014KT 20/19 A3004 RMK A01 T02030186  RH  095%=      5-min Rain = 0
KPMS 261605Z 17013KT 21/19 A3004 RMK A01 T02090188  RH  093%=      5-min Rain = 0
KPMS 261610Z 16014KT 21/19 A3004 RMK A01 T02140190  RH  091%=      5-min Rain = 0
KPMS 261615Z 16013G18KT 21/19 A3003 RMK A01 T02120187  RH  091%=      5-min Rain = 0
KPMS 261620Z 16013G19KT 21/19 A3002 RMK A01 T02120187  RH  091%=      5-min Rain = 0
KPMS 261625Z 15015KT 22/19 A3001 RMK A01 T02170189  RH  089%=      5-min Rain = 0
KPMS 261630Z 15016KT 22/19 A3001 RMK A01 T02190188  RH  087%=      5-min Rain = 0
KPMS 261635Z 14018KT 22/19 A30 RMK A01 T02200188  RH  087%=      5-min Rain = 0
KPMS 261640Z 15016G21KT 22/19 A3001 RMK A01 T02180186  RH  087%=      5-min Rain = 0
KPMS 261645Z 16017KT 22/19 A3001 RMK A01 T02230188  RH  085%=      5-min Rain = 0
KPMS 261650Z 15016G21KT 23/19 A3001 RMK A01 T02250187  RH  084%=      5-min Rain = 0
KPMS 261655Z 16016G21KT 22/19 A3001 RMK A01 T02210186  RH  085%=      5-min Rain = 0
KPMS 261700Z 16016G21KT 22/18 A3001 RMK A01 T02180184  RH  085%=      5-min Rain = 0
KPMS 261705Z 16017KT 22/18 A3001 RMK A01 T02190184  RH  085%=      5-min Rain = 0
KPMS 261710Z 16017KT 22/18 A3001 RMK A01 T02200182  RH  084%=      5-min Rain = 0
KPMS 261715Z 16016KT 22/18 A3001 RMK A01 T02200184  RH  084%=      5-min Rain = 0
KPMS 261720Z 16015G20KT 22/19 A3002 RMK A01 T02230186  RH  084%=      5-min Rain = 0
KPMS 261725Z 16016KT 22/18 A3002 RMK A01 T02180182  RH  084%=      5-min Rain = 0
KPMS 261730Z 16016G21KT 22/18 A3002 RMK A01 T02170183  RH  085%=      5-min Rain = 0
KPMS 261735Z 16014KT 22/18 A3002 RMK A01 T02150184  RH  087%=      5-min Rain = 0
KPMS 261740Z 15015KT 21/18 A3002 RMK A01 T02120183  RH  088%=      5-min Rain = 0
KPMS 261745Z 15015G20KT 21/18 A3002 RMK A01 T02120183  RH  088%=      5-min Rain = 0
KPMS 261750Z 16016KT 21/18 A3002 RMK A01 T02120180  RH  086%=      5-min Rain = 0
KPMS 261755Z 15015KT 22/18 A3002 RMK A01 T02150182  RH  086%=      5-min Rain = 0
KPMS 261800Z 15015KT 22/18 A3002 RMK A01 T02150184  RH  087%=      5-min Rain = 0
KPMS 261805Z 16015G20KT 22/18 A3001 RMK A01 T02160183  RH  086%=      5-min Rain = 0
KPMS 261810Z 15018G23KT 21/18 A3001 RMK A01 T02080180  RH  089%=      5-min Rain = 0
KPMS 261815Z 15017KT 20/18 A3001 RMK A01 T02040180  RH  091%=      5-min Rain = 0
KPMS 261820Z 15016KT 20/18 A3001 RMK A01 T02030181  RH  092%=      5-min Rain = 0
KPMS 261825Z 15015KT 20/18 A3001 RMK A01 T01990180  RH  094%=      5-min Rain = 0
KPMS 261830Z 15017G22KT 20/18 A3001 RMK A01 T01970179  RH  095%=      5-min Rain = 0
KPMS 261835Z 15017KT 20/18 A30 RMK A01 T01960181  RH  096%=      5-min Rain = 0
KPMS 261840Z 15016KT 20/18 A30 RMK A01 T01960183  RH  097%=      5-min Rain = 0
KPMS 261845Z 16015G20KT 20/18 A30 RMK A01 T01970184  RH  097%=      5-min Rain = 0
KPMS 261850Z 16014G21KT 20/19 A30 RMK A01 T02000185  RH  096%=      5-min Rain = 0
KPMS 261855Z 15015KT 20/18 A30 RMK A01 T01990183  RH  095%=      5-min Rain = 0
KPMS 261900Z 15015G21KT 20/18 A30 RMK A01 T01970183  RH  097%=      5-min Rain = 0.01
KPMS 261905Z 15016G21KT 20/18 A30 RMK A01 T01960183  RH  097%=      5-min Rain = 0
KPMS 261910Z 15015G22KT 20/18 A30 RMK A01 T01960183  RH  097%=      5-min Rain = 0
KPMS 261915Z 16017G23KT 20/18 A2999 RMK A01 T01960184  RH  098%=      5-min Rain = 0
KPMS 261920Z 16015G20KT 20/19 A2999 RMK A01 T01980185  RH  098%=      5-min Rain = 0
KPMS 261925Z 16017G24KT 20/18 A2999 RMK A01 T01980184  RH  097%=      5-min Rain = 0
KPMS 261930Z 16017G23KT 20/19 A2999 RMK A01 T01980185  RH  097%=      5-min Rain = 0
KPMS 261935Z 16018G23KT 20/18 A2999 RMK A01 T01970183  RH  097%=      5-min Rain = 0
KPMS 261940Z 16020G25KT 19/18 A2998 RMK A01 T01940181  RH  097%=      5-min Rain = 0
KPMS 261945Z 16019G26KT 20/18 A2998 RMK A01 T01950182  RH  097%=      5-min Rain = 0
KPMS 261950Z 16019G25KT 19/18 A2998 RMK A01 T01940181  RH  097%=      5-min Rain = 0
KPMS 261955Z 15019G25KT 19/18 A2997 RMK A01 T01930182  RH  098%=      5-min Rain = 0
KPMS 262000Z 16019G25KT 19/18 A2997 RMK A01 T01930182  RH  098%=      5-min Rain = 0
KPMS 262005Z 16019G26KT 19/18 A2997 RMK A01 T01930182  RH  098%=      5-min Rain = 0.01
KPMS 262010Z 16019G24KT 19/18 A2998 RMK A01 T01930181  RH  098%=      5-min Rain = 0
KPMS 262015Z 16020G26KT 19/18 A2998 RMK A01 T01920181  RH  098%=      5-min Rain = 0
KPMS 262020Z 16020G25KT 19/18 A2998 RMK A01 T01920181  RH  098%=      5-min Rain = 0
KPMS 262025Z 17018G26KT 19/18 A2998 RMK A01 T01920181  RH  098%=      5-min Rain = 0
KPMS 262030Z 17020G26KT 19/18 A2999 RMK A01 T01920180  RH  098%=      5-min Rain = 0
KPMS 262035Z 17021G30KT 19/18 A2999 RMK A01 T01920180  RH  098%=      5-min Rain = 0
KPMS 262040Z 17018G23KT 19/18 A2999 RMK A01 T01920180  RH  098%=      5-min Rain = 0
KPMS 262045Z 17018KT 19/18 A2999 RMK A01 T01920180  RH  098%=      5-min Rain = 0
KPMS 262050Z 17016G21KT 19/18 A2999 RMK A01 T01920181  RH  098%=      5-min Rain = 0
KPMS 262055Z 16017G25KT 19/18 A2999 RMK A01 T01930181  RH  098%=      5-min Rain = 0
KPMS 262100Z 16016G21KT 19/18 A2999 RMK A01 T01940182  RH  098%=      5-min Rain = 0
KPMS 262105Z 16017G24KT 19/18 A2999 RMK A01 T01940182  RH  098%=      5-min Rain = 0
KPMS 262110Z 17019G24KT 19/18 A2999 RMK A01 T01940181  RH  097%=      5-min Rain = 0
KPMS 262115Z 17017G22KT 19/18 A2998 RMK A01 T01940180  RH  097%=      5-min Rain = 0
KPMS 262120Z 16017G22KT 20/18 A2998 RMK A01 T01960181  RH  096%=      5-min Rain = 0
KPMS 262125Z 16016G22KT 20/18 A2997 RMK A01 T01970182  RH  096%=      5-min Rain = 0
KPMS 262130Z 16017G23KT 20/18 A2997 RMK A01 T01970182  RH  096%=      5-min Rain = 0
KPMS 262135Z 15019G25KT 20/18 A2996 RMK A01 T01980182  RH  095%=      5-min Rain = 0
KPMS 262140Z 15019G25KT 20/18 A2996 RMK A01 T01990182  RH  095%=      5-min Rain = 0
KPMS 262145Z 15021G29KT 20/18 A2996 RMK A01 T01980181  RH  095%=      5-min Rain = 0
KPMS 262150Z 15021G29KT 20/18 A2995 RMK A01 T01970181  RH  095%=      5-min Rain = 0
KPMS 262155Z 15019G25KT 20/18 A2996 RMK A01 T01960181  RH  096%=      5-min Rain = 0
KPMS 262200Z 16019G26KT 20/18 A2996 RMK A01 T01950180  RH  096%=      5-min Rain = 0
KPMS 262205Z 15018G24KT 19/18 A2996 RMK A01 T01940180  RH  096%=      5-min Rain = 0
KPMS 262210Z 15019G24KT 20/18 A2995 RMK A01 T01950181  RH  096%=      5-min Rain = 0
KPMS 262215Z 15018G24KT 20/18 A2995 RMK A01 T01950181  RH  096%=      5-min Rain = 0
KPMS 262220Z 15017KT 20/18 A2994 RMK A01 T01950181  RH  097%=      5-min Rain = 0
KPMS 262225Z 15015KT 19/18 A2995 RMK A01 T01940181  RH  097%=      5-min Rain = 0
KPMS 262230Z 15016G22KT 19/18 A2994 RMK A01 T01940181  RH  097%=      5-min Rain = 0
KPMS 262235Z 14018G23KT 19/18 A2993 RMK A01 T01940180  RH  097%=      5-min Rain = 0
KPMS 262240Z 14019KT 19/18 A2993 RMK A01 T01940181  RH  097%=      5-min Rain = 0
KPMS 262245Z 14018G26KT 19/18 A2993 RMK A01 T01940181  RH  097%=      5-min Rain = 0
KPMS 262250Z 14020G27KT 19/18 A2992 RMK A01 T01940180  RH  096%=      5-min Rain = 0
KPMS 262255Z 15021G27KT 20/18 A2992 RMK A01 T01950180  RH  096%=      5-min Rain = 0
KPMS 262300Z 15019G27KT 20/18 A2993 RMK A01 T01950180  RH  096%=      5-min Rain = 0
KPMS 262305Z 15018G24KT 20/18 A2993 RMK A01 T01950180  RH  096%=      5-min Rain = 0
KPMS 262310Z 14017KT 20/18 A2992 RMK A01 T01950180  RH  096%=      5-min Rain = 0
KPMS 262315Z 14016KT 20/18 A2991 RMK A01 T01960181  RH  096%=      5-min Rain = 0
KPMS 262320Z 13016KT 20/18 A299 RMK A01 T01970182  RH  096%=      5-min Rain = 0
KPMS 262325Z 14019G24KT 20/18 A2991 RMK A01 T01970182  RH  096%=      5-min Rain = 0
KPMS 262330Z 14018G23KT 20/18 A2991 RMK A01 T01970182  RH  096%=      5-min Rain = 0
KPMS 262335Z 14021G26KT 20/18 A299 RMK A01 T01970181  RH  096%=      5-min Rain = 0
KPMS 262340Z 15021G27KT 20/18 A2991 RMK A01 T01970182  RH  096%=      5-min Rain = 0
KPMS 262345Z 15018G25KT 20/18 A2992 RMK A01 T01970181  RH  096%=      5-min Rain = 0
KPMS 262350Z 14018KT 20/18 A2991 RMK A01 T01970181  RH  096%=      5-min Rain = 0
KPMS 262355Z 13016G22KT 20/18 A2989 RMK A01 T01960181  RH  096%=      5-min Rain = 0
KPMS 270000Z 13019G24KT 20/18 A2988 RMK A01 T01950182  RH  097%=      5-min Rain = 0
KPMS 270005Z 12022G30KT 20/18 A2985 RMK A01 T01970183  RH  097%=      5-min Rain = 0
KPMS 270010Z 13022G28KT 20/18 A2985 RMK A01 T01990184  RH  096%=      5-min Rain = 0
KPMS 270015Z 14022G31KT 20/18 A2986 RMK A01 T01990183  RH  096%=      5-min Rain = 0
KPMS 270020Z 13023G31KT 20/18 A2985 RMK A01 T01990183  RH  095%=      5-min Rain = 0
KPMS 270025Z 13022G30KT 20/18 A2983 RMK A01 T01990183  RH  096%=      5-min Rain = 0
KPMS 270030Z 13021G28KT 20/18 A2982 RMK A01 T01990184  RH  096%=      5-min Rain = 0
KPMS 270035Z 14021G27KT 20/18 A2983 RMK A01 T02010184  RH  095%=      5-min Rain = 0
KPMS 270040Z 14020G26KT 20/19 A2984 RMK A01 T02010185  RH  095%=      5-min Rain = 0
KPMS 270045Z 14023G30KT 20/19 A2983 RMK A01 T02020185  RH  095%=      5-min Rain = 0
KPMS 270050Z 13020G28KT 20/19 A2982 RMK A01 T02010185  RH  095%=      5-min Rain = 0
KPMS 270055Z 14022G29KT 20/19 A2982 RMK A01 T02010185  RH  095%=      5-min Rain = 0
KPMS 270100Z 14022G30KT 20/19 A2982 RMK A01 T02020185  RH  095%=      5-min Rain = 0
KPMS 270105Z 14022G28KT 20/19 A2982 RMK A01 T02020185  RH  095%=      5-min Rain = 0
KPMS 270110Z 14020G25KT 20/19 A2982 RMK A01 T02020185  RH  094%=      5-min Rain = 0
KPMS 270115Z 14018G27KT 20/19 A2983 RMK A01 T02020185  RH  095%=      5-min Rain = 0
KPMS 270120Z 15018G26KT 20/19 A2985 RMK A01 T02030185  RH  094%=      5-min Rain = 0
KPMS 270125Z 15018G25KT 20/19 A2987 RMK A01 T02030185  RH  094%=      5-min Rain = 0
KPMS 270130Z 16017KT 20/19 A2988 RMK A01 T02040185  RH  094%=      5-min Rain = 0
KPMS 270135Z 16018G24KT 20/19 A2988 RMK A01 T02040185  RH  094%=      5-min Rain = 0
KPMS 270140Z 16019G26KT 21/19 A2988 RMK A01 T02050185  RH  093%=      5-min Rain = 0
KPMS 270145Z 16019G28KT 21/19 A2988 RMK A01 T02050185  RH  093%=      5-min Rain = 0
KPMS 270150Z 16020G27KT 21/19 A2988 RMK A01 T02060185  RH  093%=      5-min Rain = 0
KPMS 270155Z 16020G26KT 21/19 A2988 RMK A01 T02060185  RH  092%=      5-min Rain = 0
KPMS 270200Z 16019G24KT 21/19 A2988 RMK A01 T02070185  RH  092%=      5-min Rain = 0
KPMS 270205Z 16017G25KT 21/19 A2989 RMK A01 T02070185  RH  092%=      5-min Rain = 0
KPMS 270210Z 16017G22KT 21/19 A2989 RMK A01 T02060185  RH  092%=      5-min Rain = 0
KPMS 270215Z 16016G23KT 21/19 A2989 RMK A01 T02060185  RH  092%=      5-min Rain = 0
KPMS 270220Z 16018G25KT 21/18 A299 RMK A01 T02060184  RH  092%=      5-min Rain = 0
KPMS 270225Z 16017G22KT 21/18 A299 RMK A01 T02060184  RH  092%=      5-min Rain = 0
KPMS 270230Z 16017G22KT 21/18 A299 RMK A01 T02060184  RH  092%=      5-min Rain = 0
KPMS 270235Z 16018G23KT 21/18 A2991 RMK A01 T02060184  RH  092%=      5-min Rain = 0
KPMS 270240Z 16016KT 21/19 A2991 RMK A01 T02060185  RH  092%=      5-min Rain = 0
KPMS 270245Z 17016KT 21/18 A2991 RMK A01 T02060184  RH  092%=      5-min Rain = 0
KPMS 270250Z 17015G20KT 21/18 A2992 RMK A01 T02060184  RH  092%=      5-min Rain = 0
KPMS 270255Z 17015KT 21/18 A2993 RMK A01 T02050184  RH  092%=      5-min Rain = 0
KPMS 270300Z 17014G19KT 21/18 A2993 RMK A01 T02050184  RH  093%=      5-min Rain = 0
KPMS 270305Z 17013KT 21/18 A2993 RMK A01 T02050184  RH  093%=      5-min Rain = 0
KPMS 270310Z 18010KT 20/18 A2994 RMK A01 T02040184  RH  093%=      5-min Rain = 0
KPMS 270315Z 18010KT 21/18 A2995 RMK A01 T02050184  RH  093%=      5-min Rain = 0
KPMS 270320Z 18010KT 21/18 A2995 RMK A01 T02050184  RH  093%=      5-min Rain = 0
KPMS 270325Z 19011KT 21/18 A2995 RMK A01 T02050184  RH  093%=      5-min Rain = 0
KPMS 270330Z 20008G14KT 21/18 A2995 RMK A01 T02050184  RH  093%=      5-min Rain = 0
KPMS 270335Z 26007KT 21/18 A2995 RMK A01 T02050184  RH  093%=      5-min Rain = 0
KPMS 270340Z 28015G24KT 18/14 A2994 RMK A01 T01840137  RH  077%=      5-min Rain = 0
KPMS 270345Z 29016G24KT 16/13 A2993 RMK A01 T01570125  RH  084%=      5-min Rain = 0.01
KPMS 270350Z 30010G17KT 15/13 A2993 RMK A01 T01520126  RH  088%=      5-min Rain = 0
KPMS 270355Z 21013G20KT 15/13 A2997 RMK A01 T01540131  RH  090%=      5-min Rain = 0.15
KPMS 270400Z 24014G22KT 15/13 A2998 RMK A01 T01520134  RH  093%=      5-min Rain = 0.18
KPMS 270405Z 27011G17KT 15/14 A2994 RMK A01 T01510137  RH  095%=      5-min Rain = 0.12
KPMS 270410Z 16008G18KT 15/14 A299 RMK A01 T01540140  RH  095%=      5-min Rain = 0.01
KPMS 270415Z 17011KT 15/14 A2991 RMK A01 T01530140  RH  095%=      5-min Rain = 0.01
KPMS 270420Z 16015G20KT 16/14 A2991 RMK A01 T01560144  RH  097%=      5-min Rain = 0
KPMS 270425Z 15019G24KT 16/15 A299 RMK A01 T01630153  RH  098%=      5-min Rain = 0
KPMS 270430Z 15020KT 17/16 A299 RMK A01 T01660155  RH  098%=      5-min Rain = 0
KPMS 270435Z 15014G20KT 17/16 A2988 RMK A01 T01710160  RH  097%=      5-min Rain = 0
KPMS 270440Z 15010KT 17/16 A2986 RMK A01 T01710159  RH  097%=      5-min Rain = 0
KPMS 270445Z 15010KT 17/16 A2986 RMK A01 T01680156  RH  097%=      5-min Rain = 0
KPMS 270450Z 14011KT 17/15 A2985 RMK A01 T01660152  RH  096%=      5-min Rain = 0
KPMS 270455Z 16010KT 17/15 A2985 RMK A01 T01670145  RH  091%=      5-min Rain = 0

Page generated in 0.0138 seconds.